createdAt,value
2023-04-19T00:02:04.962Z,8.88
2023-04-19T00:04:34.099Z,7.55
2023-04-19T00:07:04.306Z,8.15
2023-04-19T00:09:32.764Z,7.40
2023-04-19T00:12:03.271Z,7.65
2023-04-19T00:14:32.172Z,6.90
2023-04-19T00:17:01.002Z,6.30
2023-04-19T00:19:29.766Z,7.63
2023-04-19T00:21:58.193Z,6.80
2023-04-19T00:24:26.710Z,7.22
2023-04-19T00:26:55.501Z,8.52
2023-04-19T00:29:25.754Z,6.47
2023-04-19T00:31:54.249Z,6.10
2023-04-19T00:34:23.094Z,7.70
2023-04-19T00:36:51.516Z,6.43
2023-04-19T00:39:20.150Z,6.45
2023-04-19T00:41:48.553Z,7.45
2023-04-19T00:44:17.553Z,8.43
2023-04-19T00:46:47.888Z,9.63
2023-04-19T00:49:19.109Z,5.85
2023-04-19T00:51:48.967Z,9.10
2023-04-19T00:54:18.210Z,6.75
2023-04-19T00:56:48.011Z,7.40
2023-04-19T00:59:20.127Z,5.72
2023-04-19T01:01:50.157Z,7.38
2023-04-19T01:04:20.149Z,7.72
2023-04-19T01:06:49.128Z,6.97
2023-04-19T01:09:18.676Z,7.93
2023-04-19T01:11:47.418Z,8.68
2023-04-19T01:14:16.923Z,5.85
2023-04-19T01:16:50.813Z,7.10
2023-04-19T01:19:19.226Z,6.82
2023-04-19T01:21:47.754Z,6.15
2023-04-19T01:24:17.751Z,8.82
2023-04-19T01:26:46.855Z,10.07
2023-04-19T01:29:15.900Z,6.65
2023-04-19T01:31:51.468Z,6.20
2023-04-19T01:34:20.114Z,9.65
2023-04-19T01:36:48.978Z,7.10
2023-04-19T01:39:18.993Z,7.05
2023-04-19T01:41:47.565Z,6.93
2023-04-19T01:44:16.554Z,6.72
2023-04-19T01:46:46.257Z,7.00
2023-04-19T01:49:15.187Z,7.88
2023-04-19T01:51:44.412Z,7.47
2023-04-19T01:54:12.970Z,8.35
2023-04-19T01:56:43.041Z,7.38
2023-04-19T01:59:11.810Z,10.25
2023-04-19T02:01:40.975Z,8.13
2023-04-19T02:04:09.662Z,8.30
2023-04-19T02:06:38.241Z,7.68
2023-04-19T02:09:06.851Z,7.10
2023-04-19T02:11:35.314Z,10.02
2023-04-19T02:14:06.001Z,8.80
2023-04-19T02:16:36.085Z,8.85
2023-04-19T02:19:05.565Z,9.38
2023-04-19T02:21:34.955Z,8.48
2023-04-19T02:24:03.406Z,6.60
2023-04-19T02:26:33.023Z,10.27
2023-04-19T02:29:01.684Z,8.35
2023-04-19T02:31:31.395Z,7.45
2023-04-19T02:33:59.871Z,8.13
2023-04-19T02:36:28.583Z,8.27
2023-04-19T02:38:59.440Z,6.65
2023-04-19T02:41:28.289Z,6.23
2023-04-19T02:43:56.790Z,8.10
2023-04-19T02:46:25.385Z,7.57
2023-04-19T02:48:55.238Z,7.15
2023-04-19T02:51:24.384Z,7.22
2023-04-19T02:53:52.860Z,6.43
2023-04-19T02:56:21.883Z,6.22
2023-04-19T02:58:50.889Z,6.25
2023-04-19T03:01:19.448Z,7.30
2023-04-19T03:03:48.288Z,7.13
2023-04-19T03:06:18.439Z,6.40
2023-04-19T03:08:47.162Z,6.97
2023-04-19T03:11:19.455Z,6.28
2023-04-19T03:13:48.984Z,7.88
2023-04-19T03:16:17.696Z,7.00
2023-04-19T03:18:48.017Z,8.50
2023-04-19T03:21:21.523Z,6.53
2023-04-19T03:23:55.508Z,8.60
2023-04-19T03:26:25.727Z,7.95
2023-04-19T03:28:56.182Z,7.30
2023-04-19T03:31:41.159Z,7.47
2023-04-19T03:34:13.429Z,7.25
2023-04-19T03:36:47.822Z,9.25
2023-04-19T03:39:16.378Z,8.10
2023-04-19T03:41:48.385Z,8.40
2023-04-19T03:44:43.106Z,7.93
2023-04-19T03:47:12.912Z,7.85
2023-04-19T03:49:46.027Z,6.30
2023-04-19T03:52:16.233Z,6.68
2023-04-19T03:54:45.310Z,8.18
2023-04-19T03:57:27.025Z,8.32
2023-04-19T03:59:56.757Z,8.52
2023-04-19T04:02:25.499Z,7.78
2023-04-19T04:04:55.987Z,8.93
2023-04-19T04:07:27.575Z,11.07
2023-04-19T04:09:56.745Z,21.65
2023-04-19T04:12:25.534Z,17.67
2023-04-19T04:14:56.962Z,9.02
2023-04-19T04:17:26.329Z,7.60
2023-04-19T04:19:56.804Z,9.07
2023-04-19T04:22:29.990Z,8.15
2023-04-19T04:24:59.439Z,7.80
2023-04-19T04:27:33.528Z,5.80
2023-04-19T04:30:03.250Z,5.95
2023-04-19T04:32:36.054Z,5.53
2023-04-19T04:35:08.225Z,5.45
2023-04-19T04:37:55.262Z,5.78
2023-04-19T04:40:24.187Z,5.70
2023-04-19T04:42:54.304Z,5.93
2023-04-19T04:45:24.866Z,5.30
2023-04-19T04:47:53.675Z,3.05
2023-04-19T04:50:23.998Z,3.42
2023-04-19T04:52:54.817Z,3.47
2023-04-19T04:55:28.334Z,2.92
2023-04-19T04:57:56.949Z,3.85
2023-04-19T05:00:45.523Z,2.95
2023-04-19T05:03:15.252Z,2.30
2023-04-19T05:05:49.862Z,3.63
2023-04-19T05:08:20.595Z,2.90
2023-04-19T05:10:50.055Z,3.25
2023-04-19T05:13:19.973Z,2.20
2023-04-19T05:15:48.924Z,3.90
2023-04-19T05:18:17.365Z,1.70
2023-04-19T05:20:47.000Z,3.55
2023-04-19T05:23:22.992Z,2.72
2023-04-19T05:25:52.895Z,5.90
2023-04-19T05:28:23.927Z,3.27
2023-04-19T05:31:04.065Z,4.68
2023-04-19T05:33:37.098Z,3.55
2023-04-19T05:36:06.858Z,3.03
2023-04-19T05:38:37.548Z,3.78
2023-04-19T05:41:09.290Z,4.22
2023-04-19T05:43:39.456Z,5.05
2023-04-19T05:46:10.501Z,4.60
2023-04-19T05:48:39.654Z,3.95
2023-04-19T05:51:31.995Z,3.45
2023-04-19T05:54:22.921Z,2.67
2023-04-19T05:59:21.231Z,3.17
2023-04-19T06:01:50.101Z,3.13
2023-04-19T06:04:19.258Z,2.20
2023-04-19T06:06:48.621Z,3.67
2023-04-19T06:09:18.392Z,3.20
2023-04-19T06:11:51.544Z,2.92
2023-04-19T06:14:20.892Z,4.85
2023-04-19T06:16:49.509Z,3.05
2023-04-19T06:19:18.180Z,2.58
2023-04-19T06:21:47.866Z,4.15
2023-04-19T06:24:17.102Z,4.78
2023-04-19T06:26:45.559Z,3.67
2023-04-19T06:29:16.699Z,4.43
2023-04-19T06:31:46.580Z,4.20
2023-04-19T06:34:16.190Z,5.03
2023-04-19T06:36:45.862Z,4.82
2023-04-19T06:39:15.759Z,4.93
2023-04-19T06:41:45.373Z,5.38
2023-04-19T06:44:19.897Z,8.65
2023-04-19T06:46:49.224Z,4.80
2023-04-19T06:49:17.742Z,5.35
2023-04-19T06:51:47.095Z,5.80
2023-04-19T06:54:16.170Z,5.70
2023-04-19T06:56:47.020Z,4.82
2023-04-19T06:59:17.368Z,7.53
2023-04-19T07:01:49.158Z,6.40
2023-04-19T07:04:21.224Z,10.18
2023-04-19T07:06:50.938Z,6.60
2023-04-19T07:09:19.439Z,8.35
2023-04-19T07:11:48.721Z,9.73
2023-04-19T07:14:17.377Z,10.27
2023-04-19T07:16:47.043Z,6.88
2023-04-19T07:19:19.353Z,7.63
2023-04-19T07:21:48.060Z,8.75
2023-04-19T07:24:17.515Z,8.35
2023-04-19T07:26:46.392Z,8.38
2023-04-19T07:29:16.378Z,8.82
2023-04-19T07:31:47.597Z,7.78
2023-04-19T07:34:18.175Z,8.43
2023-04-19T07:36:47.205Z,9.93
2023-04-19T07:39:16.030Z,11.85
2023-04-19T07:41:44.622Z,8.82
2023-04-19T07:44:14.439Z,8.70
2023-04-19T07:46:44.513Z,7.95
2023-04-19T07:49:13.321Z,9.63
2023-04-19T07:51:43.699Z,9.00
2023-04-19T07:54:13.011Z,8.80
2023-04-19T07:56:41.905Z,9.27
2023-04-19T07:59:10.811Z,9.15
2023-04-19T08:01:39.545Z,10.00
2023-04-19T08:04:09.089Z,13.73
2023-04-19T08:06:40.018Z,12.48
2023-04-19T08:09:11.797Z,9.95
2023-04-19T08:11:40.292Z,9.95
2023-04-19T08:14:28.337Z,9.85
2023-04-19T08:17:22.219Z,8.55
2023-04-19T08:19:46.551Z,9.65
2023-04-19T08:22:15.256Z,11.20
2023-04-19T08:24:45.695Z,10.85
2023-04-19T08:27:14.427Z,9.77
2023-04-19T08:29:44.316Z,10.27
2023-04-19T08:32:14.069Z,10.90
2023-04-19T08:34:42.876Z,11.73
2023-04-19T08:37:11.552Z,10.88
2023-04-19T08:39:40.973Z,12.73
2023-04-19T08:42:24.777Z,10.57
2023-04-19T08:47:51.802Z,8.98
2023-04-19T08:50:33.456Z,11.35
2023-04-19T08:53:23.090Z,11.02
2023-04-19T08:56:12.662Z,13.38
2023-04-19T09:01:33.932Z,11.70
2023-04-19T09:04:26.408Z,12.02
2023-04-19T09:06:55.128Z,10.93
2023-04-19T09:12:00.467Z,11.05
2023-04-19T09:14:30.923Z,13.23
2023-04-19T09:17:15.866Z,10.82
2023-04-19T09:19:48.924Z,14.80
2023-04-19T09:22:18.183Z,11.05
2023-04-19T09:25:22.713Z,10.50
2023-04-19T09:27:38.354Z,9.25
2023-04-19T09:30:17.651Z,11.20
2023-04-19T09:32:50.508Z,12.15
2023-04-19T09:35:19.964Z,11.57
2023-04-19T09:40:32.107Z,10.48
2023-04-19T09:43:12.922Z,12.02
2023-04-19T09:45:48.342Z,10.68
2023-04-19T09:48:17.172Z,11.20
2023-04-19T09:51:00.696Z,11.07
2023-04-19T09:53:34.756Z,14.93
2023-04-19T09:56:06.387Z,13.75
2023-04-19T09:58:47.011Z,10.05
2023-04-19T10:01:22.346Z,10.75
2023-04-19T10:03:52.752Z,10.05
2023-04-19T10:08:56.479Z,9.30
2023-04-19T10:11:30.628Z,11.50
2023-04-19T10:14:02.690Z,9.50
2023-04-19T10:16:34.174Z,10.73
2023-04-19T10:19:06.413Z,8.50
2023-04-19T10:21:37.165Z,9.48
2023-04-19T10:24:07.378Z,9.30
2023-04-19T10:27:08.498Z,9.18
2023-04-19T10:29:56.042Z,9.82
2023-04-19T10:32:29.121Z,9.43
2023-04-19T10:35:03.970Z,9.63
2023-04-19T10:37:33.945Z,10.32
2023-04-19T10:40:02.768Z,9.57
2023-04-19T10:43:04.952Z,9.35
2023-04-19T10:48:05.219Z,8.68
2023-04-19T10:51:02.671Z,10.00
2023-04-19T10:53:48.264Z,8.85
2023-04-19T10:56:18.752Z,8.80
2023-04-19T10:59:24.380Z,12.15
2023-04-19T11:01:55.783Z,11.68
2023-04-19T11:05:02.450Z,9.43
2023-04-19T11:07:39.251Z,9.63
2023-04-19T11:10:09.652Z,9.85
2023-04-19T11:12:38.762Z,13.07
2023-04-19T11:15:10.795Z,11.05
2023-04-19T11:17:39.789Z,15.38
2023-04-19T11:20:12.221Z,12.40
2023-04-19T11:22:42.706Z,14.32
2023-04-19T11:25:13.992Z,14.43
2023-04-19T11:30:15.158Z,10.10
2023-04-19T11:32:48.471Z,15.77
2023-04-19T11:35:23.380Z,12.38
2023-04-19T11:37:53.202Z,9.90
2023-04-19T11:40:23.717Z,8.60
2023-04-19T11:42:56.412Z,10.73
2023-04-19T11:45:32.204Z,9.25
2023-04-19T11:48:04.396Z,9.73
2023-04-19T11:50:36.997Z,12.73
2023-04-19T11:53:13.939Z,12.13
2023-04-19T11:55:47.353Z,12.23
2023-04-19T11:58:28.775Z,10.77
2023-04-19T12:00:58.529Z,9.73
2023-04-19T12:03:27.717Z,9.77
2023-04-19T12:05:59.833Z,7.95
2023-04-19T12:08:33.190Z,8.38
2023-04-19T12:11:03.658Z,8.05
2023-04-19T12:13:33.700Z,13.40
2023-04-19T12:16:03.507Z,9.93
2023-04-19T12:18:45.417Z,8.77
2023-04-19T12:21:27.340Z,8.63
2023-04-19T12:23:58.039Z,8.68
2023-04-19T12:26:28.418Z,8.38
2023-04-19T12:28:57.444Z,8.75
2023-04-19T12:31:27.258Z,8.50
2023-04-19T12:33:56.265Z,9.05
2023-04-19T12:36:26.865Z,7.57
2023-04-19T12:38:55.963Z,8.07
2023-04-19T12:41:24.821Z,8.55
2023-04-19T12:43:53.588Z,7.80
2023-04-19T12:46:23.048Z,8.80
2023-04-19T12:48:52.204Z,8.65
2023-04-19T12:51:22.118Z,7.32
2023-04-19T12:53:53.847Z,7.85
2023-04-19T12:58:51.341Z,7.05
2023-04-19T13:01:20.356Z,10.75
2023-04-19T13:03:49.399Z,9.95
2023-04-19T13:06:18.864Z,7.90
2023-04-19T13:08:49.702Z,8.55
2023-04-19T13:11:23.599Z,7.50
2023-04-19T13:13:54.255Z,9.43
2023-04-19T13:16:23.530Z,7.10
2023-04-19T13:18:54.863Z,9.60
2023-04-19T13:21:24.342Z,7.55
2023-04-19T13:23:53.387Z,8.43
2023-04-19T13:26:24.092Z,8.77
2023-04-19T13:28:52.916Z,9.30
2023-04-19T13:31:22.489Z,7.72
2023-04-19T13:33:51.764Z,8.95
2023-04-19T13:36:20.704Z,10.52
2023-04-19T13:38:50.074Z,8.73
2023-04-19T13:41:19.703Z,7.68
2023-04-19T13:43:50.235Z,10.73
2023-04-19T13:46:19.075Z,9.23
2023-04-19T13:48:48.117Z,8.95
2023-04-19T13:51:17.015Z,12.38
2023-04-19T13:53:45.962Z,11.95
2023-04-19T13:56:15.358Z,11.27
2023-04-19T13:58:44.297Z,8.63
2023-04-19T14:01:14.856Z,9.10
2023-04-19T14:03:47.404Z,8.00
2023-04-19T14:06:17.480Z,9.48
2023-04-19T14:08:47.278Z,11.40
2023-04-19T14:11:18.091Z,10.70
2023-04-19T14:13:48.546Z,10.68
2023-04-19T14:16:18.937Z,9.93
2023-04-19T14:18:48.145Z,11.68
2023-04-19T14:21:16.871Z,8.77
2023-04-19T14:23:46.104Z,13.23
2023-04-19T14:26:16.291Z,9.60
2023-04-19T14:28:45.010Z,10.00
2023-04-19T14:31:14.179Z,8.30
2023-04-19T14:33:44.344Z,7.70
2023-04-19T14:36:13.606Z,8.68
2023-04-19T14:38:42.787Z,10.10
2023-04-19T14:41:12.260Z,8.38
2023-04-19T14:43:41.837Z,8.07
2023-04-19T14:46:11.712Z,8.35
2023-04-19T14:48:41.069Z,8.95
2023-04-19T14:51:11.295Z,8.95
2023-04-19T14:53:40.313Z,10.60
2023-04-19T14:56:10.129Z,8.18
2023-04-19T14:58:39.116Z,7.90
2023-04-19T15:01:15.011Z,7.35
2023-04-19T15:03:44.545Z,8.55
2023-04-19T15:06:16.384Z,7.78
2023-04-19T15:08:45.640Z,7.93
2023-04-19T15:11:16.600Z,10.68
2023-04-19T15:13:47.398Z,34.55
2023-04-19T15:16:17.385Z,24.55
2023-04-19T15:18:46.202Z,19.33
2023-04-19T15:21:21.242Z,8.50
2023-04-19T15:23:51.744Z,9.15
2023-04-19T15:26:21.686Z,5.82
2023-04-19T15:28:50.410Z,8.52
2023-04-19T15:31:20.015Z,6.18
2023-04-19T15:33:48.996Z,7.78
2023-04-19T15:36:19.571Z,4.57
2023-04-19T15:38:48.430Z,5.75
2023-04-19T15:41:18.954Z,8.35
2023-04-19T15:43:49.258Z,6.65
2023-04-19T15:46:18.221Z,3.83
2023-04-19T15:48:48.916Z,5.25
2023-04-19T15:51:19.216Z,6.28
2023-04-19T15:53:48.329Z,5.55
2023-04-19T15:56:17.226Z,5.40
2023-04-19T15:58:46.690Z,6.53
2023-04-19T16:01:18.373Z,5.30
2023-04-19T16:06:18.404Z,5.47
2023-04-19T16:08:48.053Z,8.18
2023-04-19T16:11:17.253Z,8.43
2023-04-19T16:13:46.133Z,5.20
2023-04-19T16:16:15.543Z,4.82
2023-04-19T16:18:45.224Z,10.40
2023-04-19T16:21:14.120Z,10.20
2023-04-19T16:23:44.110Z,8.55
2023-04-19T16:26:12.788Z,6.88
2023-04-19T16:28:41.918Z,9.02
2023-04-19T16:31:10.820Z,6.25
2023-04-19T16:33:39.804Z,7.38
2023-04-19T16:36:08.530Z,6.00
2023-04-19T16:38:37.471Z,7.07
2023-04-19T16:41:07.930Z,7.45
2023-04-19T16:43:37.119Z,6.72
2023-04-19T16:46:07.421Z,10.25
2023-04-19T16:48:36.477Z,5.80
2023-04-19T16:51:05.617Z,7.80
2023-04-19T16:53:34.377Z,6.82
2023-04-19T16:56:03.926Z,7.97
2023-04-19T16:58:34.692Z,8.07
2023-04-19T17:01:03.930Z,9.25
2023-04-19T17:03:33.073Z,9.73
2023-04-19T17:06:03.772Z,9.15
2023-04-19T17:08:32.797Z,8.33
2023-04-19T17:11:01.689Z,6.85
2023-04-19T17:13:31.087Z,8.45
2023-04-19T17:16:01.719Z,9.18
2023-04-19T17:18:30.580Z,6.93
2023-04-19T17:20:59.254Z,7.72
2023-04-19T17:23:29.596Z,7.57
2023-04-19T17:26:03.996Z,8.43
2023-04-19T17:28:32.631Z,6.10
2023-04-19T17:31:03.135Z,7.00
2023-04-19T17:33:32.320Z,8.63
2023-04-19T17:36:01.838Z,6.70
2023-04-19T17:38:30.922Z,7.80
2023-04-19T17:41:03.010Z,6.10
2023-04-19T17:43:31.814Z,6.07
2023-04-19T17:46:00.678Z,7.78
2023-04-19T17:48:30.842Z,7.22
2023-04-19T17:50:59.764Z,6.53
2023-04-19T17:53:28.416Z,7.05
2023-04-19T17:55:57.453Z,6.07
2023-04-19T17:58:26.521Z,7.18
2023-04-19T18:00:55.413Z,5.57
2023-04-19T18:03:24.342Z,8.70
2023-04-19T18:05:54.498Z,8.40
2023-04-19T18:08:23.218Z,8.48
2023-04-19T18:10:52.878Z,9.27
2023-04-19T18:13:25.099Z,7.40
2023-04-19T18:15:53.883Z,11.18
2023-04-19T18:18:23.569Z,9.23
2023-04-19T18:20:53.852Z,9.85
2023-04-19T18:23:24.846Z,8.25
2023-04-19T18:25:57.238Z,8.35
2023-04-19T18:28:26.152Z,8.90
2023-04-19T18:30:55.366Z,9.73
2023-04-19T18:33:24.243Z,17.58
2023-04-19T18:35:54.782Z,14.80
2023-04-19T18:38:23.952Z,15.63
2023-04-19T18:40:52.867Z,14.57
2023-04-19T18:43:22.155Z,16.45
2023-04-19T18:45:56.153Z,13.70
2023-04-19T18:48:28.122Z,14.57
2023-04-19T18:50:59.769Z,11.23
2023-04-19T18:53:30.982Z,10.43
2023-04-19T18:55:59.893Z,9.87
2023-04-19T18:58:29.544Z,10.18
2023-04-19T19:00:59.499Z,10.48
2023-04-19T19:03:58.077Z,9.82
2023-04-19T19:06:18.653Z,8.40
2023-04-19T19:08:50.296Z,9.10
2023-04-19T19:11:47.099Z,8.13
2023-04-19T19:14:08.260Z,8.77
2023-04-19T19:16:50.665Z,8.77
2023-04-19T19:19:22.923Z,8.63
2023-04-19T19:21:53.600Z,7.75
2023-04-19T19:24:22.495Z,7.85
2023-04-19T19:26:53.634Z,9.07
2023-04-19T19:29:22.657Z,6.80
2023-04-19T19:31:51.961Z,9.07
2023-04-19T19:34:25.792Z,7.05
2023-04-19T19:36:59.427Z,8.77
2023-04-19T19:39:28.190Z,10.75
2023-04-19T19:42:05.721Z,10.45
2023-04-19T19:44:39.137Z,9.52
2023-04-19T19:47:12.798Z,7.20
2023-04-19T19:50:05.429Z,11.90
2023-04-19T19:52:37.963Z,8.68
2023-04-19T20:00:36.327Z,10.98
2023-04-19T20:05:36.734Z,8.98
2023-04-19T20:08:10.645Z,11.75
2023-04-19T20:10:44.273Z,11.60
2023-04-19T20:13:18.593Z,8.88
2023-04-19T20:15:49.847Z,10.15
2023-04-19T20:18:18.982Z,8.85
2023-04-19T20:20:47.849Z,10.23
2023-04-19T20:23:18.356Z,10.27
2023-04-19T20:25:47.669Z,13.65
2023-04-19T20:28:16.314Z,12.73
2023-04-19T20:30:45.287Z,12.65
2023-04-19T20:33:15.993Z,11.38
2023-04-19T20:35:45.532Z,11.00
2023-04-19T20:38:24.047Z,12.02
2023-04-19T20:40:53.034Z,10.82
2023-04-19T20:43:22.202Z,11.80
2023-04-19T20:45:51.660Z,11.60
2023-04-19T20:48:20.623Z,11.50
2023-04-19T20:50:51.192Z,12.30
2023-04-19T20:53:23.967Z,11.45
2023-04-19T20:55:54.438Z,10.30
2023-04-19T20:58:22.963Z,11.18
2023-04-19T21:00:52.148Z,14.18
2023-04-19T21:03:21.460Z,13.38
2023-04-19T21:05:50.144Z,11.80
2023-04-19T21:08:19.803Z,12.73
2023-04-19T21:10:51.506Z,14.50
2023-04-19T21:13:20.718Z,11.75
2023-04-19T21:15:50.589Z,12.93
2023-04-19T21:18:21.004Z,12.20
2023-04-19T21:20:51.159Z,12.70
2023-04-19T21:23:20.443Z,13.85
2023-04-19T21:25:52.134Z,14.68
2023-04-19T21:28:23.076Z,13.75
2023-04-19T21:30:53.534Z,13.68
2023-04-19T21:33:23.284Z,18.58
2023-04-19T21:35:53.936Z,12.73
2023-04-19T21:38:24.240Z,13.98
2023-04-19T21:40:57.219Z,13.30
2023-04-19T21:43:26.230Z,13.35
2023-04-19T21:45:56.599Z,13.18
2023-04-19T21:48:26.747Z,14.35
2023-04-19T21:50:55.708Z,13.75
2023-04-19T21:53:25.236Z,12.07
2023-04-19T21:55:55.378Z,12.05
2023-04-19T21:58:23.925Z,12.27
2023-04-19T22:00:53.809Z,12.85
2023-04-19T22:03:23.003Z,13.90
2023-04-19T22:05:51.904Z,12.88
2023-04-19T22:08:22.252Z,13.73
2023-04-19T22:10:51.157Z,12.82
2023-04-19T22:13:22.219Z,13.85
2023-04-19T22:15:50.790Z,12.07
2023-04-19T22:18:19.251Z,11.02
2023-04-19T22:20:50.035Z,11.77
2023-04-19T22:23:18.644Z,11.23
2023-04-19T22:25:47.869Z,10.73
2023-04-19T22:28:16.640Z,10.65
2023-04-19T22:30:47.234Z,11.23
2023-04-19T22:33:16.423Z,9.98
2023-04-19T22:35:46.296Z,11.50
2023-04-19T22:38:14.751Z,13.75
2023-04-19T22:40:43.740Z,11.90
2023-04-19T22:43:12.742Z,8.93
2023-04-19T22:45:41.366Z,10.75
2023-04-19T22:48:12.621Z,12.65
2023-04-19T22:50:42.149Z,12.80
2023-04-19T22:53:12.824Z,13.07
2023-04-19T22:55:41.722Z,14.88
2023-04-19T22:58:12.681Z,11.77
2023-04-19T23:00:41.958Z,10.23
2023-04-19T23:03:12.314Z,12.27
2023-04-19T23:08:13.060Z,10.68
2023-04-19T23:10:42.583Z,11.85
2023-04-19T23:13:11.997Z,12.18
2023-04-19T23:15:40.730Z,10.20
2023-04-19T23:18:09.881Z,12.05
2023-04-19T23:20:40.105Z,13.23
2023-04-19T23:23:09.532Z,12.02
2023-04-19T23:25:38.241Z,12.57
2023-04-19T23:28:08.867Z,13.23
2023-04-19T23:30:38.904Z,10.75
2023-04-19T23:33:07.589Z,14.38
2023-04-19T23:35:36.495Z,13.07
2023-04-19T23:38:08.452Z,12.02
2023-04-19T23:40:37.843Z,14.13
2023-04-19T23:43:06.865Z,13.00
2023-04-19T23:45:35.982Z,11.88
2023-04-19T23:48:05.819Z,12.35
2023-04-19T23:50:34.477Z,13.65
2023-04-19T23:53:04.600Z,16.13
2023-04-19T23:55:34.433Z,14.20
2023-04-19T23:58:03.469Z,12.82
